Spragge, Canada
Current Conditions -  °F | °C
As of 3:00 AM on Tuesday 27 Jan 2015 (Local Time) from CYZE Reporting Station
Broken Clouds Broken Clouds  
Wind Chill: -9°   Ceiling: 18000
Heat Index:   Visibility: 9mi
Dew Point:   Wind: 9mph
Humidity: 78%   Direction: 40°NE
Pressure: 30.13"   Gusts: NA
Location:  46.21°N, 82.66°W
Report Text: CYZE 270800Z AUTO 04008KT 9SM BKN180 M15/M18 A3013 RMK ICG INTMT SLP219
Loading
Personal Weather Stations






























Interactive Weather Map New forecast layout! Learn more

10-Day Weather Forecast

Advertisements
Track Severe Weather on mobile